sensor_id;sensor_type;location;lat;lon;timestamp;temperature;humidity
27823;DHT22;29019;47.630;8.262;2023-02-04T00:02:50;19.00;34.30
27823;DHT22;29019;47.630;8.262;2023-02-04T00:06:50;19.00;34.30
27823;DHT22;29019;47.630;8.262;2023-02-04T00:10:51;19.00;34.30
27823;DHT22;29019;47.630;8.262;2023-02-04T00:14:51;19.00;34.30
27823;DHT22;29019;47.630;8.262;2023-02-04T00:18:52;19.00;34.30
27823;DHT22;29019;47.630;8.262;2023-02-04T00:22:52;19.00;34.30
27823;DHT22;29019;47.630;8.262;2023-02-04T00:26:53;18.90;34.30
27823;DHT22;29019;47.630;8.262;2023-02-04T00:30:53;18.90;34.30
27823;DHT22;29019;47.630;8.262;2023-02-04T00:34:54;18.90;34.30
27823;DHT22;29019;47.630;8.262;2023-02-04T00:38:54;18.90;34.40
27823;DHT22;29019;47.630;8.262;2023-02-04T00:42:55;18.80;34.30
27823;DHT22;29019;47.630;8.262;2023-02-04T00:46:55;18.80;34.40
27823;DHT22;29019;47.630;8.262;2023-02-04T00:50:56;18.80;34.40
27823;DHT22;29019;47.630;8.262;2023-02-04T00:54:57;18.80;34.40
27823;DHT22;29019;47.630;8.262;2023-02-04T00:58:57;18.80;34.40
27823;DHT22;29019;47.630;8.262;2023-02-04T01:02:57;18.80;34.40
27823;DHT22;29019;47.630;8.262;2023-02-04T01:06:58;18.80;34.40
27823;DHT22;29019;47.630;8.262;2023-02-04T01:10:58;18.80;34.40
27823;DHT22;29019;47.630;8.262;2023-02-04T01:14:59;18.70;34.40
27823;DHT22;29019;47.630;8.262;2023-02-04T01:18:59;18.70;34.40
27823;DHT22;29019;47.630;8.262;2023-02-04T01:23:00;18.70;34.40
27823;DHT22;29019;47.630;8.262;2023-02-04T01:27:00;18.70;34.50
27823;DHT22;29019;47.630;8.262;2023-02-04T01:31:00;18.70;34.50
27823;DHT22;29019;47.630;8.262;2023-02-04T01:35:01;18.60;34.60
27823;DHT22;29019;47.630;8.262;2023-02-04T01:39:01;18.60;34.60
27823;DHT22;29019;47.630;8.262;2023-02-04T01:43:02;18.60;34.60
27823;DHT22;29019;47.630;8.262;2023-02-04T01:47:03;18.60;34.50
27823;DHT22;29019;47.630;8.262;2023-02-04T01:51:07;18.60;34.60
27823;DHT22;29019;47.630;8.262;2023-02-04T01:55:12;18.60;34.60
27823;DHT22;29019;47.630;8.262;2023-02-04T01:59:13;18.60;34.60
27823;DHT22;29019;47.630;8.262;2023-02-04T02:03:14;18.60;34.70
27823;DHT22;29019;47.630;8.262;2023-02-04T02:07:15;18.60;34.70
27823;DHT22;29019;47.630;8.262;2023-02-04T02:11:15;18.60;34.70
27823;DHT22;29019;47.630;8.262;2023-02-04T02:15:16;18.60;34.70
27823;DHT22;29019;47.630;8.262;2023-02-04T02:19:19;18.60;34.70
27823;DHT22;29019;47.630;8.262;2023-02-04T02:23:43;18.60;34.70
27823;DHT22;29019;47.630;8.262;2023-02-04T02:27:45;18.60;34.70
27823;DHT22;29019;47.630;8.262;2023-02-04T02:31:46;18.60;34.70
27823;DHT22;29019;47.630;8.262;2023-02-04T02:35:46;18.60;34.70
27823;DHT22;29019;47.630;8.262;2023-02-04T02:39:50;18.60;34.70
27823;DHT22;29019;47.630;8.262;2023-02-04T02:43:50;18.60;34.70
27823;DHT22;29019;47.630;8.262;2023-02-04T02:47:51;18.60;34.70
27823;DHT22;29019;47.630;8.262;2023-02-04T02:51:52;18.60;34.80
27823;DHT22;29019;47.630;8.262;2023-02-04T02:55:52;18.50;34.70
27823;DHT22;29019;47.630;8.262;2023-02-04T02:59:53;18.50;34.70
27823;DHT22;29019;47.630;8.262;2023-02-04T03:03:53;18.50;34.70
27823;DHT22;29019;47.630;8.262;2023-02-04T03:07:53;18.50;34.80
27823;DHT22;29019;47.630;8.262;2023-02-04T03:11:54;18.50;34.80
27823;DHT22;29019;47.630;8.262;2023-02-04T03:15:54;18.60;34.80
27823;DHT22;29019;47.630;8.262;2023-02-04T03:19:55;18.60;34.70
27823;DHT22;29019;47.630;8.262;2023-02-04T03:23:56;18.50;34.70
27823;DHT22;29019;47.630;8.262;2023-02-04T03:27:57;18.60;34.80
27823;DHT22;29019;47.630;8.262;2023-02-04T03:31:57;18.60;34.80
27823;DHT22;29019;47.630;8.262;2023-02-04T03:35:59;18.50;34.80
27823;DHT22;29019;47.630;8.262;2023-02-04T03:39:59;18.50;34.70
27823;DHT22;29019;47.630;8.262;2023-02-04T03:43:59;18.50;34.80
27823;DHT22;29019;47.630;8.262;2023-02-04T03:48:00;18.50;34.70
27823;DHT22;29019;47.630;8.262;2023-02-04T03:52:01;18.50;35.30
27823;DHT22;29019;47.630;8.262;2023-02-04T03:56:02;18.50;34.80
27823;DHT22;29019;47.630;8.262;2023-02-04T04:00:02;18.50;34.80
27823;DHT22;29019;47.630;8.262;2023-02-04T04:04:03;18.50;34.80
27823;DHT22;29019;47.630;8.262;2023-02-04T04:08:03;18.50;34.80
27823;DHT22;29019;47.630;8.262;2023-02-04T04:12:04;18.50;34.80
27823;DHT22;29019;47.630;8.262;2023-02-04T04:16:04;18.50;34.80
27823;DHT22;29019;47.630;8.262;2023-02-04T04:20:05;18.50;34.80
27823;DHT22;29019;47.630;8.262;2023-02-04T04:24:05;18.50;34.80
27823;DHT22;29019;47.630;8.262;2023-02-04T04:28:06;18.50;34.80
27823;DHT22;29019;47.630;8.262;2023-02-04T04:32:06;18.50;34.80
27823;DHT22;29019;47.630;8.262;2023-02-04T04:36:08;18.50;35.30
27823;DHT22;29019;47.630;8.262;2023-02-04T04:40:12;18.50;34.80
27823;DHT22;29019;47.630;8.262;2023-02-04T04:44:12;18.50;34.80
27823;DHT22;29019;47.630;8.262;2023-02-04T04:48:13;18.50;34.80
27823;DHT22;29019;47.630;8.262;2023-02-04T04:52:13;18.50;34.70
27823;DHT22;29019;47.630;8.262;2023-02-04T04:56:14;18.50;34.70
27823;DHT22;29019;47.630;8.262;2023-02-04T05:00:15;18.50;34.80
27823;DHT22;29019;47.630;8.262;2023-02-04T05:04:16;18.50;34.80
27823;DHT22;29019;47.630;8.262;2023-02-04T05:08:16;18.50;34.80
27823;DHT22;29019;47.630;8.262;2023-02-04T05:12:18;18.50;34.90
27823;DHT22;29019;47.630;8.262;2023-02-04T05:16:18;18.60;34.90
27823;DHT22;29019;47.630;8.262;2023-02-04T05:20:19;18.60;34.90
27823;DHT22;29019;47.630;8.262;2023-02-04T05:24:19;18.70;34.80
27823;DHT22;29019;47.630;8.262;2023-02-04T05:28:20;18.80;34.80
27823;DHT22;29019;47.630;8.262;2023-02-04T05:32:20;18.80;34.80
27823;DHT22;29019;47.630;8.262;2023-02-04T05:36:21;18.90;34.70
27823;DHT22;29019;47.630;8.262;2023-02-04T05:40:21;18.90;34.70
27823;DHT22;29019;47.630;8.262;2023-02-04T05:44:22;19.00;35.20
27823;DHT22;29019;47.630;8.262;2023-02-04T05:48:22;19.00;34.60
27823;DHT22;29019;47.630;8.262;2023-02-04T05:52:23;19.10;34.60
27823;DHT22;29019;47.630;8.262;2023-02-04T05:56:23;19.10;34.60
27823;DHT22;29019;47.630;8.262;2023-02-04T06:00:24;19.10;34.60
27823;DHT22;29019;47.630;8.262;2023-02-04T06:04:25;19.20;34.50
27823;DHT22;29019;47.630;8.262;2023-02-04T06:08:25;19.20;34.50
27823;DHT22;29019;47.630;8.262;2023-02-04T06:12:25;19.30;34.60
27823;DHT22;29019;47.630;8.262;2023-02-04T06:16:26;19.30;34.60
27823;DHT22;29019;47.630;8.262;2023-02-04T06:20:26;19.20;34.60
27823;DHT22;29019;47.630;8.262;2023-02-04T06:24:27;19.30;34.60
27823;DHT22;29019;47.630;8.262;2023-02-04T06:28:27;19.30;34.60
27823;DHT22;29019;47.630;8.262;2023-02-04T06:32:28;19.40;34.60
27823;DHT22;29019;47.630;8.262;2023-02-04T06:36:28;19.40;34.60
27823;DHT22;29019;47.630;8.262;2023-02-04T06:40:28;19.40;34.50
27823;DHT22;29019;47.630;8.262;2023-02-04T06:44:29;19.50;34.60
27823;DHT22;29019;47.630;8.262;2023-02-04T06:48:29;19.50;34.60
27823;DHT22;29019;47.630;8.262;2023-02-04T06:52:30;19.50;34.60
27823;DHT22;29019;47.630;8.262;2023-02-04T06:56:30;19.50;34.60
27823;DHT22;29019;47.630;8.262;2023-02-04T07:00:31;19.50;34.60
27823;DHT22;29019;47.630;8.262;2023-02-04T07:04:31;19.50;34.60
27823;DHT22;29019;47.630;8.262;2023-02-04T07:08:32;19.60;34.70
27823;DHT22;29019;47.630;8.262;2023-02-04T07:12:32;19.60;34.70
27823;DHT22;29019;47.630;8.262;2023-02-04T07:16:33;19.60;34.60
27823;DHT22;29019;47.630;8.262;2023-02-04T07:20:33;19.60;34.60
27823;DHT22;29019;47.630;8.262;2023-02-04T07:24:34;19.70;34.60
27823;DHT22;29019;47.630;8.262;2023-02-04T07:28:34;19.70;34.60
27823;DHT22;29019;47.630;8.262;2023-02-04T07:32:36;19.70;34.60
27823;DHT22;29019;47.630;8.262;2023-02-04T07:36:36;19.70;34.60
27823;DHT22;29019;47.630;8.262;2023-02-04T07:40:36;19.70;34.60
27823;DHT22;29019;47.630;8.262;2023-02-04T07:44:38;19.70;34.50
27823;DHT22;29019;47.630;8.262;2023-02-04T07:48:38;19.70;34.60
27823;DHT22;29019;47.630;8.262;2023-02-04T07:52:39;19.80;34.60
27823;DHT22;29019;47.630;8.262;2023-02-04T07:56:39;19.80;34.60
27823;DHT22;29019;47.630;8.262;2023-02-04T08:00:40;19.80;34.60
27823;DHT22;29019;47.630;8.262;2023-02-04T08:04:40;19.80;34.50
27823;DHT22;29019;47.630;8.262;2023-02-04T08:08:41;19.80;34.50
27823;DHT22;29019;47.630;8.262;2023-02-04T08:12:41;19.80;34.50
27823;DHT22;29019;47.630;8.262;2023-02-04T08:16:41;19.90;34.60
27823;DHT22;29019;47.630;8.262;2023-02-04T08:20:42;19.90;34.60
27823;DHT22;29019;47.630;8.262;2023-02-04T08:24:42;19.90;34.60
27823;DHT22;29019;47.630;8.262;2023-02-04T08:28:43;19.90;34.60
27823;DHT22;29019;47.630;8.262;2023-02-04T08:32:43;19.90;34.60
27823;DHT22;29019;47.630;8.262;2023-02-04T08:36:43;20.00;34.60
27823;DHT22;29019;47.630;8.262;2023-02-04T08:40:44;20.00;34.60
27823;DHT22;29019;47.630;8.262;2023-02-04T08:44:45;20.00;34.60
27823;DHT22;29019;47.630;8.262;2023-02-04T08:48:45;20.00;34.60
27823;DHT22;29019;47.630;8.262;2023-02-04T08:52:46;20.00;34.50
27823;DHT22;29019;47.630;8.262;2023-02-04T08:56:46;20.10;34.60
27823;DHT22;29019;47.630;8.262;2023-02-04T09:00:47;20.00;34.60
27823;DHT22;29019;47.630;8.262;2023-02-04T09:04:47;20.10;34.60
27823;DHT22;29019;47.630;8.262;2023-02-04T09:08:47;20.10;34.60
27823;DHT22;29019;47.630;8.262;2023-02-04T09:12:48;20.10;34.60
27823;DHT22;29019;47.630;8.262;2023-02-04T09:16:48;20.10;34.60
27823;DHT22;29019;47.630;8.262;2023-02-04T09:20:49;20.10;34.60
27823;DHT22;29019;47.630;8.262;2023-02-04T09:24:50;20.20;34.50
27823;DHT22;29019;47.630;8.262;2023-02-04T09:28:50;20.20;34.50
27823;DHT22;29019;47.630;8.262;2023-02-04T09:32:50;20.20;34.50
27823;DHT22;29019;47.630;8.262;2023-02-04T09:36:51;20.20;34.50
27823;DHT22;29019;47.630;8.262;2023-02-04T09:41:01;20.20;34.50
27823;DHT22;29019;47.630;8.262;2023-02-04T09:45:02;20.20;34.40
27823;DHT22;29019;47.630;8.262;2023-02-04T09:49:02;20.30;34.50
27823;DHT22;29019;47.630;8.262;2023-02-04T09:53:04;20.20;34.50
27823;DHT22;29019;47.630;8.262;2023-02-04T09:57:15;20.30;34.50
27823;DHT22;29019;47.630;8.262;2023-02-04T10:01:17;20.30;34.50
27823;DHT22;29019;47.630;8.262;2023-02-04T10:05:19;20.30;34.50
27823;DHT22;29019;47.630;8.262;2023-02-04T10:09:20;20.30;34.50
27823;DHT22;29019;47.630;8.262;2023-02-04T10:13:31;20.30;34.50
27823;DHT22;29019;47.630;8.262;2023-02-04T10:17:33;20.30;35.00
27823;DHT22;29019;47.630;8.262;2023-02-04T10:21:34;20.40;34.50
27823;DHT22;29019;47.630;8.262;2023-02-04T10:25:36;20.40;34.50
27823;DHT22;29019;47.630;8.262;2023-02-04T10:29:36;20.40;34.50
27823;DHT22;29019;47.630;8.262;2023-02-04T10:33:37;20.40;34.60
27823;DHT22;29019;47.630;8.262;2023-02-04T10:37:39;20.40;34.60
27823;DHT22;29019;47.630;8.262;2023-02-04T10:41:49;20.40;34.60
27823;DHT22;29019;47.630;8.262;2023-02-04T10:45:57;20.40;34.60
27823;DHT22;29019;47.630;8.262;2023-02-04T10:50:14;20.40;34.60
27823;DHT22;29019;47.630;8.262;2023-02-04T10:54:16;20.40;34.50
27823;DHT22;29019;47.630;8.262;2023-02-04T10:58:29;20.40;34.50
27823;DHT22;29019;47.630;8.262;2023-02-04T11:02:32;20.40;34.50
27823;DHT22;29019;47.630;8.262;2023-02-04T11:06:34;20.50;34.50
27823;DHT22;29019;47.630;8.262;2023-02-04T11:10:34;20.50;34.50
27823;DHT22;29019;47.630;8.262;2023-02-04T11:14:34;20.50;34.50
27823;DHT22;29019;47.630;8.262;2023-02-04T11:18:51;20.50;34.50
27823;DHT22;29019;47.630;8.262;2023-02-04T11:22:52;20.50;34.50
27823;DHT22;29019;47.630;8.262;2023-02-04T11:27:16;20.50;34.50
27823;DHT22;29019;47.630;8.262;2023-02-04T11:35:22;20.50;34.50
27823;DHT22;29019;47.630;8.262;2023-02-04T11:39:42;20.60;34.50
27823;DHT22;29019;47.630;8.262;2023-02-04T11:43:43;20.50;34.40
27823;DHT22;29019;47.630;8.262;2023-02-04T11:47:44;20.60;34.40
27823;DHT22;29019;47.630;8.262;2023-02-04T11:51:45;20.60;34.40
27823;DHT22;29019;47.630;8.262;2023-02-04T11:55:45;20.60;34.40
27823;DHT22;29019;47.630;8.262;2023-02-04T11:59:46;20.60;34.40
27823;DHT22;29019;47.630;8.262;2023-02-04T12:03:47;20.60;34.30
27823;DHT22;29019;47.630;8.262;2023-02-04T12:07:48;20.60;34.40
27823;DHT22;29019;47.630;8.262;2023-02-04T12:11:56;20.60;34.30
27823;DHT22;29019;47.630;8.262;2023-02-04T12:16:00;20.70;34.40
27823;DHT22;29019;47.630;8.262;2023-02-04T12:20:01;20.70;34.40
27823;DHT22;29019;47.630;8.262;2023-02-04T12:24:01;20.70;34.30
27823;DHT22;29019;47.630;8.262;2023-02-04T12:28:02;20.70;34.30
27823;DHT22;29019;47.630;8.262;2023-02-04T12:32:02;20.70;34.30
27823;DHT22;29019;47.630;8.262;2023-02-04T12:36:03;20.70;34.30
27823;DHT22;29019;47.630;8.262;2023-02-04T12:40:04;20.70;34.30
27823;DHT22;29019;47.630;8.262;2023-02-04T12:44:04;20.70;34.30
27823;DHT22;29019;47.630;8.262;2023-02-04T12:48:05;20.70;34.30
27823;DHT22;29019;47.630;8.262;2023-02-04T12:52:05;20.70;34.30
27823;DHT22;29019;47.630;8.262;2023-02-04T12:56:06;20.80;34.90
27823;DHT22;29019;47.630;8.262;2023-02-04T13:00:06;20.80;34.30
27823;DHT22;29019;47.630;8.262;2023-02-04T13:04:07;20.80;34.30
27823;DHT22;29019;47.630;8.262;2023-02-04T13:08:08;20.80;34.20
27823;DHT22;29019;47.630;8.262;2023-02-04T13:12:08;20.80;34.30
27823;DHT22;29019;47.630;8.262;2023-02-04T13:16:09;20.80;34.20
27823;DHT22;29019;47.630;8.262;2023-02-04T13:20:09;20.80;34.20
27823;DHT22;29019;47.630;8.262;2023-02-04T13:24:10;20.80;34.20
27823;DHT22;29019;47.630;8.262;2023-02-04T13:28:10;20.80;34.20
27823;DHT22;29019;47.630;8.262;2023-02-04T13:32:11;20.80;34.20
27823;DHT22;29019;47.630;8.262;2023-02-04T13:36:12;20.90;34.30
27823;DHT22;29019;47.630;8.262;2023-02-04T13:40:12;20.90;34.20
27823;DHT22;29019;47.630;8.262;2023-02-04T13:44:13;20.80;34.20
27823;DHT22;29019;47.630;8.262;2023-02-04T13:48:13;20.90;34.30
27823;DHT22;29019;47.630;8.262;2023-02-04T13:52:14;20.90;34.20
27823;DHT22;29019;47.630;8.262;2023-02-04T13:56:17;20.90;34.20
27823;DHT22;29019;47.630;8.262;2023-02-04T14:00:17;20.90;34.20
27823;DHT22;29019;47.630;8.262;2023-02-04T14:04:18;20.90;34.20
27823;DHT22;29019;47.630;8.262;2023-02-04T14:08:19;20.90;34.20
27823;DHT22;29019;47.630;8.262;2023-02-04T14:12:19;20.90;34.20
27823;DHT22;29019;47.630;8.262;2023-02-04T14:16:20;20.90;34.20
27823;DHT22;29019;47.630;8.262;2023-02-04T14:20:21;20.90;34.10
27823;DHT22;29019;47.630;8.262;2023-02-04T14:24:21;20.90;34.20
27823;DHT22;29019;47.630;8.262;2023-02-04T14:28:21;20.90;34.20
27823;DHT22;29019;47.630;8.262;2023-02-04T14:32:22;21.00;34.20
27823;DHT22;29019;47.630;8.262;2023-02-04T14:36:23;20.90;34.20
27823;DHT22;29019;47.630;8.262;2023-02-04T14:40:23;20.90;34.20
27823;DHT22;29019;47.630;8.262;2023-02-04T14:44:24;21.00;34.20
27823;DHT22;29019;47.630;8.262;2023-02-04T14:48:24;20.90;34.20
27823;DHT22;29019;47.630;8.262;2023-02-04T14:52:24;20.90;34.30
27823;DHT22;29019;47.630;8.262;2023-02-04T14:56:25;21.00;34.30
27823;DHT22;29019;47.630;8.262;2023-02-04T15:00:26;21.00;34.20
27823;DHT22;29019;47.630;8.262;2023-02-04T15:04:26;21.00;34.30
27823;DHT22;29019;47.630;8.262;2023-02-04T15:08:27;21.00;34.30
27823;DHT22;29019;47.630;8.262;2023-02-04T15:12:27;21.00;34.30
27823;DHT22;29019;47.630;8.262;2023-02-04T15:16:28;21.00;34.20
27823;DHT22;29019;47.630;8.262;2023-02-04T15:20:28;21.00;34.30
27823;DHT22;29019;47.630;8.262;2023-02-04T15:24:29;21.00;34.20
27823;DHT22;29019;47.630;8.262;2023-02-04T15:28:29;21.00;34.20
27823;DHT22;29019;47.630;8.262;2023-02-04T15:32:30;21.10;34.30
27823;DHT22;29019;47.630;8.262;2023-02-04T15:36:31;21.00;34.20
27823;DHT22;29019;47.630;8.262;2023-02-04T15:40:31;21.00;34.30
27823;DHT22;29019;47.630;8.262;2023-02-04T15:44:31;21.00;34.20
27823;DHT22;29019;47.630;8.262;2023-02-04T15:48:32;21.10;34.20
27823;DHT22;29019;47.630;8.262;2023-02-04T15:52:32;21.00;34.20
27823;DHT22;29019;47.630;8.262;2023-02-04T15:56:33;21.10;34.20
27823;DHT22;29019;47.630;8.262;2023-02-04T16:00:33;21.00;34.10
27823;DHT22;29019;47.630;8.262;2023-02-04T16:04:34;21.00;34.10
27823;DHT22;29019;47.630;8.262;2023-02-04T16:08:34;21.00;34.10
27823;DHT22;29019;47.630;8.262;2023-02-04T16:12:35;21.10;34.10
27823;DHT22;29019;47.630;8.262;2023-02-04T16:16:35;21.10;34.00
27823;DHT22;29019;47.630;8.262;2023-02-04T16:20:36;21.10;34.10
27823;DHT22;29019;47.630;8.262;2023-02-04T16:24:36;21.10;34.00
27823;DHT22;29019;47.630;8.262;2023-02-04T16:28:37;21.10;34.10
27823;DHT22;29019;47.630;8.262;2023-02-04T16:32:38;21.10;34.00
27823;DHT22;29019;47.630;8.262;2023-02-04T16:36:38;21.10;34.00
27823;DHT22;29019;47.630;8.262;2023-02-04T16:40:39;21.10;34.00
27823;DHT22;29019;47.630;8.262;2023-02-04T16:44:39;21.10;34.00
27823;DHT22;29019;47.630;8.262;2023-02-04T16:48:40;21.10;33.90
27823;DHT22;29019;47.630;8.262;2023-02-04T16:52:40;21.10;33.90
27823;DHT22;29019;47.630;8.262;2023-02-04T16:56:40;21.10;33.90
27823;DHT22;29019;47.630;8.262;2023-02-04T17:00:41;21.10;33.90
27823;DHT22;29019;47.630;8.262;2023-02-04T17:04:43;21.10;33.90
27823;DHT22;29019;47.630;8.262;2023-02-04T17:08:43;21.10;33.90
27823;DHT22;29019;47.630;8.262;2023-02-04T17:12:44;21.10;33.90
27823;DHT22;29019;47.630;8.262;2023-02-04T17:16:44;21.10;33.90
27823;DHT22;29019;47.630;8.262;2023-02-04T17:20:45;21.10;34.00
27823;DHT22;29019;47.630;8.262;2023-02-04T17:24:46;21.10;34.00
27823;DHT22;29019;47.630;8.262;2023-02-04T17:28:46;21.10;33.90
27823;DHT22;29019;47.630;8.262;2023-02-04T17:32:46;21.10;33.90
27823;DHT22;29019;47.630;8.262;2023-02-04T17:36:47;21.10;33.90
27823;DHT22;29019;47.630;8.262;2023-02-04T17:40:47;21.10;33.90
27823;DHT22;29019;47.630;8.262;2023-02-04T17:44:49;21.10;33.80
27823;DHT22;29019;47.630;8.262;2023-02-04T17:48:49;21.10;33.90
27823;DHT22;29019;47.630;8.262;2023-02-04T17:52:50;21.10;33.80
27823;DHT22;29019;47.630;8.262;2023-02-04T17:56:52;21.10;33.80
27823;DHT22;29019;47.630;8.262;2023-02-04T18:00:53;21.10;33.80
27823;DHT22;29019;47.630;8.262;2023-02-04T18:04:58;21.10;34.40
27823;DHT22;29019;47.630;8.262;2023-02-04T18:08:59;21.10;33.80
27823;DHT22;29019;47.630;8.262;2023-02-04T18:13:05;21.10;33.80
27823;DHT22;29019;47.630;8.262;2023-02-04T18:17:08;21.10;33.80
27823;DHT22;29019;47.630;8.262;2023-02-04T18:25:18;21.10;33.80
27823;DHT22;29019;47.630;8.262;2023-02-04T18:29:28;21.20;33.80
27823;DHT22;29019;47.630;8.262;2023-02-04T18:33:30;21.20;33.80
27823;DHT22;29019;47.630;8.262;2023-02-04T18:37:32;21.10;33.80
27823;DHT22;29019;47.630;8.262;2023-02-04T18:41:33;21.20;33.80
27823;DHT22;29019;47.630;8.262;2023-02-04T18:45:34;21.10;33.80
27823;DHT22;29019;47.630;8.262;2023-02-04T18:49:36;21.20;33.80
27823;DHT22;29019;47.630;8.262;2023-02-04T18:53:38;21.20;33.80
27823;DHT22;29019;47.630;8.262;2023-02-04T18:57:39;21.10;33.70
27823;DHT22;29019;47.630;8.262;2023-02-04T19:01:39;21.00;33.90
27823;DHT22;29019;47.630;8.262;2023-02-04T19:05:41;21.00;33.90
27823;DHT22;29019;47.630;8.262;2023-02-04T19:09:45;21.00;33.80
27823;DHT22;29019;47.630;8.262;2023-02-04T19:13:46;21.00;33.70
27823;DHT22;29019;47.630;8.262;2023-02-04T19:17:46;21.10;33.70
27823;DHT22;29019;47.630;8.262;2023-02-04T19:21:47;21.10;33.80
27823;DHT22;29019;47.630;8.262;2023-02-04T19:25:49;21.00;34.60
27823;DHT22;29019;47.630;8.262;2023-02-04T19:29:49;20.70;32.70
27823;DHT22;29019;47.630;8.262;2023-02-04T19:33:50;20.40;31.80
27823;DHT22;29019;47.630;8.262;2023-02-04T19:37:56;20.10;31.20
27823;DHT22;29019;47.630;8.262;2023-02-04T19:41:57;19.90;30.80
27823;DHT22;29019;47.630;8.262;2023-02-04T19:45:57;19.70;32.30
27823;DHT22;29019;47.630;8.262;2023-02-04T19:54:17;20.00;32.90
27823;DHT22;29019;47.630;8.262;2023-02-04T19:58:23;20.20;32.80
27823;DHT22;29019;47.630;8.262;2023-02-04T20:02:37;20.30;32.70
27823;DHT22;29019;47.630;8.262;2023-02-04T20:06:39;20.40;32.70
27823;DHT22;29019;47.630;8.262;2023-02-04T20:10:42;20.40;32.70
27823;DHT22;29019;47.630;8.262;2023-02-04T20:15:26;20.40;32.70
27823;DHT22;29019;47.630;8.262;2023-02-04T20:23:27;20.40;33.10
27823;DHT22;29019;47.630;8.262;2023-02-04T20:27:35;20.40;33.00
27823;DHT22;29019;47.630;8.262;2023-02-04T20:31:37;20.30;33.20
27823;DHT22;29019;47.630;8.262;2023-02-04T20:39:39;20.30;33.20
27823;DHT22;29019;47.630;8.262;2023-02-04T20:43:40;20.30;33.30
27823;DHT22;29019;47.630;8.262;2023-02-04T20:47:40;20.30;33.40
27823;DHT22;29019;47.630;8.262;2023-02-04T20:51:41;20.30;33.50
27823;DHT22;29019;47.630;8.262;2023-02-04T20:55:45;20.20;33.50
27823;DHT22;29019;47.630;8.262;2023-02-04T20:59:45;20.30;33.60
27823;DHT22;29019;47.630;8.262;2023-02-04T21:03:49;20.20;33.60
27823;DHT22;29019;47.630;8.262;2023-02-04T21:07:52;20.20;33.80
27823;DHT22;29019;47.630;8.262;2023-02-04T21:11:54;20.10;33.70
27823;DHT22;29019;47.630;8.262;2023-02-04T21:15:55;20.20;33.80
27823;DHT22;29019;47.630;8.262;2023-02-04T21:19:55;20.10;33.80
27823;DHT22;29019;47.630;8.262;2023-02-04T21:23:56;20.20;34.70
27823;DHT22;29019;47.630;8.262;2023-02-04T21:27:56;20.10;34.30
27823;DHT22;29019;47.630;8.262;2023-02-04T21:31:57;20.10;34.00
27823;DHT22;29019;47.630;8.262;2023-02-04T21:35:57;20.10;34.00
27823;DHT22;29019;47.630;8.262;2023-02-04T21:39:58;20.00;34.00
27823;DHT22;29019;47.630;8.262;2023-02-04T21:43:58;20.00;34.10
27823;DHT22;29019;47.630;8.262;2023-02-04T21:47:59;20.00;34.00
27823;DHT22;29019;47.630;8.262;2023-02-04T21:51:59;20.00;34.30
27823;DHT22;29019;47.630;8.262;2023-02-04T21:56:00;19.90;34.10
27823;DHT22;29019;47.630;8.262;2023-02-04T22:00:00;19.90;34.10
27823;DHT22;29019;47.630;8.262;2023-02-04T22:04:00;19.90;34.70
27823;DHT22;29019;47.630;8.262;2023-02-04T22:08:01;19.90;35.20
27823;DHT22;29019;47.630;8.262;2023-02-04T22:12:01;19.90;35.30
27823;DHT22;29019;47.630;8.262;2023-02-04T22:16:03;19.80;34.50
27823;DHT22;29019;47.630;8.262;2023-02-04T22:20:04;19.80;34.60
27823;DHT22;29019;47.630;8.262;2023-02-04T22:24:04;19.80;34.80
27823;DHT22;29019;47.630;8.262;2023-02-04T22:28:05;19.80;34.50
27823;DHT22;29019;47.630;8.262;2023-02-04T22:32:05;19.80;34.50
27823;DHT22;29019;47.630;8.262;2023-02-04T22:36:06;19.80;34.90
27823;DHT22;29019;47.630;8.262;2023-02-04T22:40:06;19.80;34.70
27823;DHT22;29019;47.630;8.262;2023-02-04T22:44:07;19.80;34.70
27823;DHT22;29019;47.630;8.262;2023-02-04T22:48:08;19.80;34.70
27823;DHT22;29019;47.630;8.262;2023-02-04T22:52:09;19.80;34.80
27823;DHT22;29019;47.630;8.262;2023-02-04T22:56:09;19.80;34.80
27823;DHT22;29019;47.630;8.262;2023-02-04T23:00:10;19.80;34.80
27823;DHT22;29019;47.630;8.262;2023-02-04T23:04:11;19.80;34.80
27823;DHT22;29019;47.630;8.262;2023-02-04T23:08:11;19.80;34.80
27823;DHT22;29019;47.630;8.262;2023-02-04T23:12:12;19.80;34.90
27823;DHT22;29019;47.630;8.262;2023-02-04T23:16:12;19.80;34.90
27823;DHT22;29019;47.630;8.262;2023-02-04T23:20:13;19.80;35.00
27823;DHT22;29019;47.630;8.262;2023-02-04T23:24:13;19.80;34.90
27823;DHT22;29019;47.630;8.262;2023-02-04T23:28:14;19.80;35.00
27823;DHT22;29019;47.630;8.262;2023-02-04T23:32:15;19.80;34.90
27823;DHT22;29019;47.630;8.262;2023-02-04T23:36:16;19.70;34.80
27823;DHT22;29019;47.630;8.262;2023-02-04T23:40:16;19.70;34.90
27823;DHT22;29019;47.630;8.262;2023-02-04T23:44:17;19.70;34.90
27823;DHT22;29019;47.630;8.262;2023-02-04T23:48:17;19.70;34.90
27823;DHT22;29019;47.630;8.262;2023-02-04T23:52:18;19.70;34.90
27823;DHT22;29019;47.630;8.262;2023-02-04T23:56:18;19.70;35.00
